sensor_id;sensor_type;location;lat;lon;timestamp;P1;durP1;ratioP1;P2;durP2;ratioP2
19059;SDS011;9663;48.996;8.334;2023-07-02T00:01:46;2.88;;;1.25;;
19059;SDS011;9663;48.996;8.334;2023-07-02T00:04:13;3.38;;;1.30;;
19059;SDS011;9663;48.996;8.334;2023-07-02T00:06:44;2.88;;;1.23;;
19059;SDS011;9663;48.996;8.334;2023-07-02T00:09:13;4.72;;;1.17;;
19059;SDS011;9663;48.996;8.334;2023-07-02T00:11:41;2.95;;;1.15;;
19059;SDS011;9663;48.996;8.334;2023-07-02T00:14:11;3.40;;;1.45;;
19059;SDS011;9663;48.996;8.334;2023-07-02T00:16:38;4.00;;;1.52;;
19059;SDS011;9663;48.996;8.334;2023-07-02T00:19:11;3.10;;;1.17;;
19059;SDS011;9663;48.996;8.334;2023-07-02T00:21:39;3.20;;;1.05;;
19059;SDS011;9663;48.996;8.334;2023-07-02T00:24:05;2.80;;;1.20;;
19059;SDS011;9663;48.996;8.334;2023-07-02T00:26:34;3.30;;;1.20;;
19059;SDS011;9663;48.996;8.334;2023-07-02T00:29:00;2.83;;;1.10;;
19059;SDS011;9663;48.996;8.334;2023-07-02T00:31:28;3.35;;;1.23;;
19059;SDS011;9663;48.996;8.334;2023-07-02T00:33:54;4.68;;;1.23;;
19059;SDS011;9663;48.996;8.334;2023-07-02T00:36:20;3.05;;;1.15;;
19059;SDS011;9663;48.996;8.334;2023-07-02T00:38:47;3.92;;;1.30;;
19059;SDS011;9663;48.996;8.334;2023-07-02T00:41:14;2.50;;;1.00;;
19059;SDS011;9663;48.996;8.334;2023-07-02T00:43:40;2.90;;;1.23;;
19059;SDS011;9663;48.996;8.334;2023-07-02T00:46:16;3.38;;;1.30;;
19059;SDS011;9663;48.996;8.334;2023-07-02T00:48:54;4.00;;;1.50;;
19059;SDS011;9663;48.996;8.334;2023-07-02T00:51:21;3.80;;;1.42;;
19059;SDS011;9663;48.996;8.334;2023-07-02T00:53:55;3.13;;;1.30;;
19059;SDS011;9663;48.996;8.334;2023-07-02T00:56:23;3.05;;;1.17;;
19059;SDS011;9663;48.996;8.334;2023-07-02T00:58:51;3.13;;;1.25;;
19059;SDS011;9663;48.996;8.334;2023-07-02T01:01:20;3.30;;;1.10;;
19059;SDS011;9663;48.996;8.334;2023-07-02T01:03:53;2.90;;;1.05;;
19059;SDS011;9663;48.996;8.334;2023-07-02T01:06:26;2.63;;;1.00;;
19059;SDS011;9663;48.996;8.334;2023-07-02T01:08:54;3.45;;;1.30;;
19059;SDS011;9663;48.996;8.334;2023-07-02T01:11:23;2.60;;;1.10;;
19059;SDS011;9663;48.996;8.334;2023-07-02T01:16:37;2.83;;;1.15;;
19059;SDS011;9663;48.996;8.334;2023-07-02T01:19:12;2.53;;;0.90;;
19059;SDS011;9663;48.996;8.334;2023-07-02T01:21:44;3.17;;;1.20;;
19059;SDS011;9663;48.996;8.334;2023-07-02T01:24:12;2.95;;;1.20;;
19059;SDS011;9663;48.996;8.334;2023-07-02T01:26:39;4.18;;;1.20;;
19059;SDS011;9663;48.996;8.334;2023-07-02T01:29:15;2.75;;;1.10;;
19059;SDS011;9663;48.996;8.334;2023-07-02T01:31:45;3.63;;;1.30;;
19059;SDS011;9663;48.996;8.334;2023-07-02T01:34:12;2.88;;;1.20;;
19059;SDS011;9663;48.996;8.334;2023-07-02T01:36:39;2.83;;;1.10;;
19059;SDS011;9663;48.996;8.334;2023-07-02T01:39:05;3.55;;;1.23;;
19059;SDS011;9663;48.996;8.334;2023-07-02T01:41:36;3.58;;;1.40;;
19059;SDS011;9663;48.996;8.334;2023-07-02T01:44:17;2.50;;;1.05;;
19059;SDS011;9663;48.996;8.334;2023-07-02T01:46:44;3.53;;;1.33;;
19059;SDS011;9663;48.996;8.334;2023-07-02T01:49:13;4.30;;;1.20;;
19059;SDS011;9663;48.996;8.334;2023-07-02T01:52:01;3.65;;;1.25;;
19059;SDS011;9663;48.996;8.334;2023-07-02T01:54:28;3.35;;;1.30;;
19059;SDS011;9663;48.996;8.334;2023-07-02T01:56:55;4.05;;;1.40;;
19059;SDS011;9663;48.996;8.334;2023-07-02T01:59:21;2.72;;;1.10;;
19059;SDS011;9663;48.996;8.334;2023-07-02T02:01:47;3.53;;;1.20;;
19059;SDS011;9663;48.996;8.334;2023-07-02T02:04:13;3.08;;;1.15;;
19059;SDS011;9663;48.996;8.334;2023-07-02T02:06:39;3.08;;;1.17;;
19059;SDS011;9663;48.996;8.334;2023-07-02T02:09:06;3.50;;;1.40;;
19059;SDS011;9663;48.996;8.334;2023-07-02T02:11:34;3.10;;;1.30;;
19059;SDS011;9663;48.996;8.334;2023-07-02T02:14:04;3.10;;;1.17;;
19059;SDS011;9663;48.996;8.334;2023-07-02T02:16:30;4.97;;;1.17;;
19059;SDS011;9663;48.996;8.334;2023-07-02T02:18:58;3.03;;;1.20;;
19059;SDS011;9663;48.996;8.334;2023-07-02T02:21:25;4.25;;;1.30;;
19059;SDS011;9663;48.996;8.334;2023-07-02T02:23:51;3.40;;;1.30;;
19059;SDS011;9663;48.996;8.334;2023-07-02T02:26:17;3.05;;;1.20;;
19059;SDS011;9663;48.996;8.334;2023-07-02T02:28:46;3.53;;;1.40;;
19059;SDS011;9663;48.996;8.334;2023-07-02T02:31:12;4.50;;;1.30;;
19059;SDS011;9663;48.996;8.334;2023-07-02T02:33:37;3.15;;;1.20;;
19059;SDS011;9663;48.996;8.334;2023-07-02T02:36:03;3.63;;;1.27;;
19059;SDS011;9663;48.996;8.334;2023-07-02T02:38:29;5.95;;;1.40;;
19059;SDS011;9663;48.996;8.334;2023-07-02T02:40:55;3.40;;;1.20;;
19059;SDS011;9663;48.996;8.334;2023-07-02T02:43:20;3.53;;;1.23;;
19059;SDS011;9663;48.996;8.334;2023-07-02T02:45:47;3.28;;;1.27;;
19059;SDS011;9663;48.996;8.334;2023-07-02T02:48:13;3.85;;;1.48;;
19059;SDS011;9663;48.996;8.334;2023-07-02T02:50:39;5.22;;;1.50;;
19059;SDS011;9663;48.996;8.334;2023-07-02T02:53:06;3.53;;;1.45;;
19059;SDS011;9663;48.996;8.334;2023-07-02T02:55:35;4.28;;;1.30;;
19059;SDS011;9663;48.996;8.334;2023-07-02T02:58:02;3.75;;;1.30;;
19059;SDS011;9663;48.996;8.334;2023-07-02T03:00:28;3.30;;;1.30;;
19059;SDS011;9663;48.996;8.334;2023-07-02T03:02:54;3.83;;;1.20;;
19059;SDS011;9663;48.996;8.334;2023-07-02T03:05:20;3.10;;;1.10;;
19059;SDS011;9663;48.996;8.334;2023-07-02T03:07:47;2.80;;;1.20;;
19059;SDS011;9663;48.996;8.334;2023-07-02T03:10:13;3.85;;;1.30;;
19059;SDS011;9663;48.996;8.334;2023-07-02T03:12:39;4.65;;;1.17;;
19059;SDS011;9663;48.996;8.334;2023-07-02T03:15:04;2.97;;;1.02;;
19059;SDS011;9663;48.996;8.334;2023-07-02T03:17:31;3.28;;;1.30;;
19059;SDS011;9663;48.996;8.334;2023-07-02T03:19:56;5.20;;;1.42;;
19059;SDS011;9663;48.996;8.334;2023-07-02T03:22:22;3.40;;;1.20;;
19059;SDS011;9663;48.996;8.334;2023-07-02T03:24:48;3.88;;;1.45;;
19059;SDS011;9663;48.996;8.334;2023-07-02T03:27:13;3.10;;;1.25;;
19059;SDS011;9663;48.996;8.334;2023-07-02T03:29:39;4.32;;;1.48;;
19059;SDS011;9663;48.996;8.334;2023-07-02T03:32:04;3.30;;;1.38;;
19059;SDS011;9663;48.996;8.334;2023-07-02T03:34:31;3.17;;;1.00;;
19059;SDS011;9663;48.996;8.334;2023-07-02T03:36:56;3.05;;;1.30;;
19059;SDS011;9663;48.996;8.334;2023-07-02T03:39:22;3.30;;;1.27;;
19059;SDS011;9663;48.996;8.334;2023-07-02T03:41:48;3.17;;;1.30;;
19059;SDS011;9663;48.996;8.334;2023-07-02T03:44:13;2.95;;;1.10;;
19059;SDS011;9663;48.996;8.334;2023-07-02T03:46:39;4.18;;;1.23;;
19059;SDS011;9663;48.996;8.334;2023-07-02T03:49:05;4.63;;;1.40;;
19059;SDS011;9663;48.996;8.334;2023-07-02T03:51:31;4.00;;;1.40;;
19059;SDS011;9663;48.996;8.334;2023-07-02T03:54:00;4.45;;;1.60;;
19059;SDS011;9663;48.996;8.334;2023-07-02T03:56:26;3.15;;;1.35;;
19059;SDS011;9663;48.996;8.334;2023-07-02T03:58:52;3.85;;;1.25;;
19059;SDS011;9663;48.996;8.334;2023-07-02T04:01:18;4.20;;;1.38;;
19059;SDS011;9663;48.996;8.334;2023-07-02T04:03:47;5.85;;;1.40;;
19059;SDS011;9663;48.996;8.334;2023-07-02T04:06:15;4.63;;;1.60;;
19059;SDS011;9663;48.996;8.334;2023-07-02T04:08:41;4.82;;;1.60;;
19059;SDS011;9663;48.996;8.334;2023-07-02T04:11:08;3.13;;;1.33;;
19059;SDS011;9663;48.996;8.334;2023-07-02T04:13:35;4.13;;;1.70;;
19059;SDS011;9663;48.996;8.334;2023-07-02T04:16:00;3.70;;;1.50;;
19059;SDS011;9663;48.996;8.334;2023-07-02T04:18:26;4.03;;;1.75;;
19059;SDS011;9663;48.996;8.334;2023-07-02T04:20:53;4.50;;;1.58;;
19059;SDS011;9663;48.996;8.334;2023-07-02T04:23:19;4.82;;;1.63;;
19059;SDS011;9663;48.996;8.334;2023-07-02T04:25:45;3.20;;;1.30;;
19059;SDS011;9663;48.996;8.334;2023-07-02T04:28:11;4.30;;;1.50;;
19059;SDS011;9663;48.996;8.334;2023-07-02T04:30:37;4.00;;;1.65;;
19059;SDS011;9663;48.996;8.334;2023-07-02T04:33:03;3.80;;;1.60;;
19059;SDS011;9663;48.996;8.334;2023-07-02T04:35:30;3.75;;;1.65;;
19059;SDS011;9663;48.996;8.334;2023-07-02T04:37:59;4.57;;;1.77;;
19059;SDS011;9663;48.996;8.334;2023-07-02T04:40:28;4.65;;;1.83;;
19059;SDS011;9663;48.996;8.334;2023-07-02T04:42:54;4.25;;;1.60;;
19059;SDS011;9663;48.996;8.334;2023-07-02T04:45:25;3.45;;;1.50;;
19059;SDS011;9663;48.996;8.334;2023-07-02T04:48:00;4.75;;;1.60;;
19059;SDS011;9663;48.996;8.334;2023-07-02T04:50:26;4.28;;;1.70;;
19059;SDS011;9663;48.996;8.334;2023-07-02T04:52:51;3.80;;;1.50;;
19059;SDS011;9663;48.996;8.334;2023-07-02T04:55:18;4.32;;;1.70;;
19059;SDS011;9663;48.996;8.334;2023-07-02T04:57:44;4.30;;;1.80;;
19059;SDS011;9663;48.996;8.334;2023-07-02T05:00:10;4.13;;;1.50;;
19059;SDS011;9663;48.996;8.334;2023-07-02T05:02:37;5.05;;;1.60;;
19059;SDS011;9663;48.996;8.334;2023-07-02T05:05:03;4.43;;;1.88;;
19059;SDS011;9663;48.996;8.334;2023-07-02T05:07:29;3.75;;;1.42;;
19059;SDS011;9663;48.996;8.334;2023-07-02T05:09:55;3.40;;;1.50;;
19059;SDS011;9663;48.996;8.334;2023-07-02T05:12:20;3.78;;;1.60;;
19059;SDS011;9663;48.996;8.334;2023-07-02T05:14:47;3.42;;;1.42;;
19059;SDS011;9663;48.996;8.334;2023-07-02T05:17:13;4.53;;;1.92;;
19059;SDS011;9663;48.996;8.334;2023-07-02T05:19:39;4.63;;;1.73;;
19059;SDS011;9663;48.996;8.334;2023-07-02T05:22:08;3.70;;;1.80;;
19059;SDS011;9663;48.996;8.334;2023-07-02T05:24:35;4.15;;;1.75;;
19059;SDS011;9663;48.996;8.334;2023-07-02T05:27:00;4.07;;;1.80;;
19059;SDS011;9663;48.996;8.334;2023-07-02T05:29:26;4.10;;;1.77;;
19059;SDS011;9663;48.996;8.334;2023-07-02T05:31:55;6.35;;;2.10;;
19059;SDS011;9663;48.996;8.334;2023-07-02T05:34:23;5.63;;;2.05;;
19059;SDS011;9663;48.996;8.334;2023-07-02T05:36:49;4.15;;;1.63;;
19059;SDS011;9663;48.996;8.334;2023-07-02T05:39:15;4.68;;;2.08;;
19059;SDS011;9663;48.996;8.334;2023-07-02T05:41:41;4.63;;;1.73;;
19059;SDS011;9663;48.996;8.334;2023-07-02T05:44:06;4.10;;;1.73;;
19059;SDS011;9663;48.996;8.334;2023-07-02T05:46:32;4.45;;;1.77;;
19059;SDS011;9663;48.996;8.334;2023-07-02T05:48:58;4.90;;;1.75;;
19059;SDS011;9663;48.996;8.334;2023-07-02T05:51:24;3.92;;;1.75;;
19059;SDS011;9663;48.996;8.334;2023-07-02T05:53:51;5.10;;;1.70;;
19059;SDS011;9663;48.996;8.334;2023-07-02T05:56:17;4.93;;;2.10;;
19059;SDS011;9663;48.996;8.334;2023-07-02T05:58:44;3.90;;;1.63;;
19059;SDS011;9663;48.996;8.334;2023-07-02T06:01:11;4.90;;;2.03;;
19059;SDS011;9663;48.996;8.334;2023-07-02T06:03:37;4.55;;;1.80;;
19059;SDS011;9663;48.996;8.334;2023-07-02T06:06:03;4.68;;;1.77;;
19059;SDS011;9663;48.996;8.334;2023-07-02T06:08:29;5.22;;;2.00;;
19059;SDS011;9663;48.996;8.334;2023-07-02T06:10:54;4.53;;;1.50;;
19059;SDS011;9663;48.996;8.334;2023-07-02T06:13:20;4.18;;;1.70;;
19059;SDS011;9663;48.996;8.334;2023-07-02T06:15:46;4.28;;;1.95;;
19059;SDS011;9663;48.996;8.334;2023-07-02T06:18:12;4.53;;;1.95;;
19059;SDS011;9663;48.996;8.334;2023-07-02T06:20:38;4.68;;;2.10;;
19059;SDS011;9663;48.996;8.334;2023-07-02T06:23:04;3.85;;;1.88;;
19059;SDS011;9663;48.996;8.334;2023-07-02T06:25:30;4.25;;;2.00;;
19059;SDS011;9663;48.996;8.334;2023-07-02T06:27:55;4.90;;;2.08;;
19059;SDS011;9663;48.996;8.334;2023-07-02T06:30:23;4.90;;;1.90;;
19059;SDS011;9663;48.996;8.334;2023-07-02T06:32:50;5.82;;;2.28;;
19059;SDS011;9663;48.996;8.334;2023-07-02T06:35:15;5.03;;;2.30;;
19059;SDS011;9663;48.996;8.334;2023-07-02T06:37:41;5.05;;;2.60;;
19059;SDS011;9663;48.996;8.334;2023-07-02T06:40:07;5.78;;;2.97;;
19059;SDS011;9663;48.996;8.334;2023-07-02T06:42:33;7.20;;;2.88;;
19059;SDS011;9663;48.996;8.334;2023-07-02T06:45:00;6.00;;;3.20;;
19059;SDS011;9663;48.996;8.334;2023-07-02T06:47:27;8.10;;;4.28;;
19059;SDS011;9663;48.996;8.334;2023-07-02T06:49:53;8.15;;;4.15;;
19059;SDS011;9663;48.996;8.334;2023-07-02T06:52:19;7.70;;;4.03;;
19059;SDS011;9663;48.996;8.334;2023-07-02T06:54:44;7.82;;;4.28;;
19059;SDS011;9663;48.996;8.334;2023-07-02T06:57:10;8.75;;;4.65;;
19059;SDS011;9663;48.996;8.334;2023-07-02T06:59:38;8.95;;;4.43;;
19059;SDS011;9663;48.996;8.334;2023-07-02T07:02:04;9.90;;;5.00;;
19059;SDS011;9663;48.996;8.334;2023-07-02T07:04:29;11.32;;;5.43;;
19059;SDS011;9663;48.996;8.334;2023-07-02T07:06:55;8.15;;;4.60;;
19059;SDS011;9663;48.996;8.334;2023-07-02T07:09:21;9.18;;;5.75;;
19059;SDS011;9663;48.996;8.334;2023-07-02T07:11:47;10.10;;;5.80;;
19059;SDS011;9663;48.996;8.334;2023-07-02T07:14:12;9.65;;;5.18;;
19059;SDS011;9663;48.996;8.334;2023-07-02T07:16:38;11.00;;;6.13;;
19059;SDS011;9663;48.996;8.334;2023-07-02T07:19:04;11.32;;;5.57;;
19059;SDS011;9663;48.996;8.334;2023-07-02T07:21:31;11.35;;;5.88;;
19059;SDS011;9663;48.996;8.334;2023-07-02T07:23:56;11.73;;;6.50;;
19059;SDS011;9663;48.996;8.334;2023-07-02T07:26:22;11.93;;;6.90;;
19059;SDS011;9663;48.996;8.334;2023-07-02T07:28:48;9.68;;;6.10;;
19059;SDS011;9663;48.996;8.334;2023-07-02T07:31:14;10.57;;;6.28;;
19059;SDS011;9663;48.996;8.334;2023-07-02T07:33:40;10.02;;;6.05;;
19059;SDS011;9663;48.996;8.334;2023-07-02T07:36:06;9.00;;;5.63;;
19059;SDS011;9663;48.996;8.334;2023-07-02T07:38:31;9.88;;;6.22;;
19059;SDS011;9663;48.996;8.334;2023-07-02T07:40:57;13.50;;;6.85;;
19059;SDS011;9663;48.996;8.334;2023-07-02T07:43:23;11.10;;;6.95;;
19059;SDS011;9663;48.996;8.334;2023-07-02T07:45:48;9.77;;;5.30;;
19059;SDS011;9663;48.996;8.334;2023-07-02T07:48:14;9.18;;;5.72;;
19059;SDS011;9663;48.996;8.334;2023-07-02T07:50:40;12.27;;;7.30;;
19059;SDS011;9663;48.996;8.334;2023-07-02T07:53:06;11.95;;;7.28;;
19059;SDS011;9663;48.996;8.334;2023-07-02T07:55:31;12.43;;;7.50;;
19059;SDS011;9663;48.996;8.334;2023-07-02T07:57:57;11.15;;;7.10;;
19059;SDS011;9663;48.996;8.334;2023-07-02T08:00:22;12.43;;;7.05;;
19059;SDS011;9663;48.996;8.334;2023-07-02T08:02:49;11.00;;;7.43;;
19059;SDS011;9663;48.996;8.334;2023-07-02T08:05:17;10.90;;;6.97;;
19059;SDS011;9663;48.996;8.334;2023-07-02T08:07:43;12.38;;;7.88;;
19059;SDS011;9663;48.996;8.334;2023-07-02T08:10:08;11.90;;;7.35;;
19059;SDS011;9663;48.996;8.334;2023-07-02T08:12:35;12.02;;;7.22;;
19059;SDS011;9663;48.996;8.334;2023-07-02T08:15:01;11.95;;;7.38;;
19059;SDS011;9663;48.996;8.334;2023-07-02T08:17:26;11.77;;;8.05;;
19059;SDS011;9663;48.996;8.334;2023-07-02T08:19:52;14.30;;;8.52;;
19059;SDS011;9663;48.996;8.334;2023-07-02T08:22:18;11.57;;;7.53;;
19059;SDS011;9663;48.996;8.334;2023-07-02T08:24:43;13.27;;;8.45;;
19059;SDS011;9663;48.996;8.334;2023-07-02T08:27:09;14.52;;;8.85;;
19059;SDS011;9663;48.996;8.334;2023-07-02T08:29:38;16.05;;;8.38;;
19059;SDS011;9663;48.996;8.334;2023-07-02T08:32:04;14.10;;;8.32;;
19059;SDS011;9663;48.996;8.334;2023-07-02T08:34:30;12.63;;;8.25;;
19059;SDS011;9663;48.996;8.334;2023-07-02T08:36:56;12.48;;;8.00;;
19059;SDS011;9663;48.996;8.334;2023-07-02T08:39:21;13.25;;;8.43;;
19059;SDS011;9663;48.996;8.334;2023-07-02T08:41:47;14.70;;;8.95;;
19059;SDS011;9663;48.996;8.334;2023-07-02T08:44:14;11.88;;;7.90;;
19059;SDS011;9663;48.996;8.334;2023-07-02T08:46:45;12.70;;;7.90;;
19059;SDS011;9663;48.996;8.334;2023-07-02T08:49:15;15.75;;;8.98;;
19059;SDS011;9663;48.996;8.334;2023-07-02T08:51:44;13.57;;;8.82;;
19059;SDS011;9663;48.996;8.334;2023-07-02T08:54:11;12.82;;;8.20;;
19059;SDS011;9663;48.996;8.334;2023-07-02T08:56:38;13.90;;;9.20;;
19059;SDS011;9663;48.996;8.334;2023-07-02T08:59:06;14.02;;;9.15;;
19059;SDS011;9663;48.996;8.334;2023-07-02T09:01:43;13.20;;;8.70;;
19059;SDS011;9663;48.996;8.334;2023-07-02T09:04:21;14.25;;;9.30;;
19059;SDS011;9663;48.996;8.334;2023-07-02T09:06:50;13.30;;;9.55;;
19059;SDS011;9663;48.996;8.334;2023-07-02T09:09:46;16.23;;;9.85;;
19059;SDS011;9663;48.996;8.334;2023-07-02T09:12:23;16.40;;;9.32;;
19059;SDS011;9663;48.996;8.334;2023-07-02T09:14:57;15.65;;;9.15;;
19059;SDS011;9663;48.996;8.334;2023-07-02T09:17:29;14.82;;;9.50;;
19059;SDS011;9663;48.996;8.334;2023-07-02T09:19:58;14.98;;;9.05;;
19059;SDS011;9663;48.996;8.334;2023-07-02T09:22:29;13.35;;;8.90;;
19059;SDS011;9663;48.996;8.334;2023-07-02T09:24:56;15.30;;;9.13;;
19059;SDS011;9663;48.996;8.334;2023-07-02T09:27:37;14.70;;;9.35;;
19059;SDS011;9663;48.996;8.334;2023-07-02T09:30:10;15.63;;;9.75;;
19059;SDS011;9663;48.996;8.334;2023-07-02T09:32:40;15.20;;;9.88;;
19059;SDS011;9663;48.996;8.334;2023-07-02T09:35:19;18.27;;;9.23;;
19059;SDS011;9663;48.996;8.334;2023-07-02T09:37:48;15.20;;;9.73;;
19059;SDS011;9663;48.996;8.334;2023-07-02T09:40:15;15.77;;;9.40;;
19059;SDS011;9663;48.996;8.334;2023-07-02T09:42:46;13.57;;;9.10;;
19059;SDS011;9663;48.996;8.334;2023-07-02T09:45:17;18.20;;;11.90;;
19059;SDS011;9663;48.996;8.334;2023-07-02T09:47:47;17.55;;;11.07;;
19059;SDS011;9663;48.996;8.334;2023-07-02T09:50:18;16.80;;;9.85;;
19059;SDS011;9663;48.996;8.334;2023-07-02T09:52:45;13.93;;;9.70;;
19059;SDS011;9663;48.996;8.334;2023-07-02T09:55:12;15.05;;;9.82;;
19059;SDS011;9663;48.996;8.334;2023-07-02T09:57:39;14.50;;;9.07;;
19059;SDS011;9663;48.996;8.334;2023-07-02T10:00:08;17.20;;;9.48;;
19059;SDS011;9663;48.996;8.334;2023-07-02T10:02:35;14.77;;;8.77;;
19059;SDS011;9663;48.996;8.334;2023-07-02T10:05:01;17.90;;;11.60;;
19059;SDS011;9663;48.996;8.334;2023-07-02T10:07:30;15.20;;;10.02;;
19059;SDS011;9663;48.996;8.334;2023-07-02T10:10:00;15.37;;;10.30;;
19059;SDS011;9663;48.996;8.334;2023-07-02T10:12:27;16.25;;;10.13;;
19059;SDS011;9663;48.996;8.334;2023-07-02T10:14:54;15.98;;;9.57;;
19059;SDS011;9663;48.996;8.334;2023-07-02T10:17:26;14.18;;;8.65;;
19059;SDS011;9663;48.996;8.334;2023-07-02T10:20:00;15.32;;;10.23;;
19059;SDS011;9663;48.996;8.334;2023-07-02T10:22:42;15.82;;;10.23;;
19059;SDS011;9663;48.996;8.334;2023-07-02T10:25:09;14.02;;;9.05;;
19059;SDS011;9663;48.996;8.334;2023-07-02T10:30:06;12.48;;;8.05;;
19059;SDS011;9663;48.996;8.334;2023-07-02T10:32:34;15.52;;;9.95;;
19059;SDS011;9663;48.996;8.334;2023-07-02T10:35:24;16.77;;;10.20;;
19059;SDS011;9663;48.996;8.334;2023-07-02T10:37:50;14.27;;;8.93;;
19059;SDS011;9663;48.996;8.334;2023-07-02T10:40:16;13.73;;;8.80;;
19059;SDS011;9663;48.996;8.334;2023-07-02T10:42:46;14.85;;;8.55;;
19059;SDS011;9663;48.996;8.334;2023-07-02T10:45:16;14.00;;;8.65;;
19059;SDS011;9663;48.996;8.334;2023-07-02T10:47:42;13.45;;;8.52;;
19059;SDS011;9663;48.996;8.334;2023-07-02T10:50:20;11.45;;;8.55;;
19059;SDS011;9663;48.996;8.334;2023-07-02T10:52:48;13.48;;;8.85;;
19059;SDS011;9663;48.996;8.334;2023-07-02T10:55:20;15.70;;;9.63;;
19059;SDS011;9663;48.996;8.334;2023-07-02T10:57:52;16.15;;;9.10;;
19059;SDS011;9663;48.996;8.334;2023-07-02T11:00:32;13.77;;;9.63;;
19059;SDS011;9663;48.996;8.334;2023-07-02T11:02:58;13.25;;;9.32;;
19059;SDS011;9663;48.996;8.334;2023-07-02T11:05:24;14.30;;;9.27;;
19059;SDS011;9663;48.996;8.334;2023-07-02T11:07:50;12.70;;;8.13;;
19059;SDS011;9663;48.996;8.334;2023-07-02T11:10:22;13.68;;;8.95;;
19059;SDS011;9663;48.996;8.334;2023-07-02T11:12:49;13.73;;;9.63;;
19059;SDS011;9663;48.996;8.334;2023-07-02T11:15:15;14.52;;;9.32;;
19059;SDS011;9663;48.996;8.334;2023-07-02T11:17:44;13.65;;;9.65;;
19059;SDS011;9663;48.996;8.334;2023-07-02T11:20:12;14.20;;;9.25;;
19059;SDS011;9663;48.996;8.334;2023-07-02T11:22:39;13.80;;;9.75;;
19059;SDS011;9663;48.996;8.334;2023-07-02T11:25:18;12.30;;;8.35;;
19059;SDS011;9663;48.996;8.334;2023-07-02T11:27:45;11.63;;;8.73;;
19059;SDS011;9663;48.996;8.334;2023-07-02T11:30:11;12.00;;;8.70;;
19059;SDS011;9663;48.996;8.334;2023-07-02T11:32:52;13.80;;;9.00;;
19059;SDS011;9663;48.996;8.334;2023-07-02T11:35:19;13.45;;;9.82;;
19059;SDS011;9663;48.996;8.334;2023-07-02T11:37:47;13.60;;;8.93;;
19059;SDS011;9663;48.996;8.334;2023-07-02T11:40:14;13.13;;;8.70;;
19059;SDS011;9663;48.996;8.334;2023-07-02T11:42:42;12.73;;;8.30;;
19059;SDS011;9663;48.996;8.334;2023-07-02T11:45:08;11.90;;;8.40;;
19059;SDS011;9663;48.996;8.334;2023-07-02T11:47:35;15.48;;;8.48;;
19059;SDS011;9663;48.996;8.334;2023-07-02T11:50:00;12.25;;;8.25;;
19059;SDS011;9663;48.996;8.334;2023-07-02T11:52:26;12.05;;;8.52;;
19059;SDS011;9663;48.996;8.334;2023-07-02T11:54:52;12.15;;;8.45;;
19059;SDS011;9663;48.996;8.334;2023-07-02T11:57:17;10.73;;;7.68;;
19059;SDS011;9663;48.996;8.334;2023-07-02T11:59:44;11.40;;;8.27;;
19059;SDS011;9663;48.996;8.334;2023-07-02T12:02:10;11.25;;;7.93;;
19059;SDS011;9663;48.996;8.334;2023-07-02T12:04:35;11.88;;;8.40;;
19059;SDS011;9663;48.996;8.334;2023-07-02T12:07:01;10.57;;;7.50;;
19059;SDS011;9663;48.996;8.334;2023-07-02T12:09:28;11.48;;;8.27;;
19059;SDS011;9663;48.996;8.334;2023-07-02T12:11:54;10.80;;;7.70;;
19059;SDS011;9663;48.996;8.334;2023-07-02T12:14:20;12.63;;;8.00;;
19059;SDS011;9663;48.996;8.334;2023-07-02T12:16:46;11.82;;;8.18;;
19059;SDS011;9663;48.996;8.334;2023-07-02T12:19:11;12.90;;;8.35;;
19059;SDS011;9663;48.996;8.334;2023-07-02T12:21:37;11.82;;;8.18;;
19059;SDS011;9663;48.996;8.334;2023-07-02T12:24:02;11.27;;;8.07;;
19059;SDS011;9663;48.996;8.334;2023-07-02T12:26:33;11.57;;;7.38;;
19059;SDS011;9663;48.996;8.334;2023-07-02T12:29:00;11.05;;;7.45;;
19059;SDS011;9663;48.996;8.334;2023-07-02T12:31:25;11.63;;;7.25;;
19059;SDS011;9663;48.996;8.334;2023-07-02T12:33:51;10.57;;;7.10;;
19059;SDS011;9663;48.996;8.334;2023-07-02T12:36:17;12.40;;;7.97;;
19059;SDS011;9663;48.996;8.334;2023-07-02T12:38:42;11.43;;;7.75;;
19059;SDS011;9663;48.996;8.334;2023-07-02T12:41:08;9.88;;;6.88;;
19059;SDS011;9663;48.996;8.334;2023-07-02T12:43:33;10.63;;;7.40;;
19059;SDS011;9663;48.996;8.334;2023-07-02T12:45:59;10.38;;;7.10;;
19059;SDS011;9663;48.996;8.334;2023-07-02T12:48:25;11.95;;;8.10;;
19059;SDS011;9663;48.996;8.334;2023-07-02T12:50:57;11.25;;;7.75;;
19059;SDS011;9663;48.996;8.334;2023-07-02T12:53:24;12.02;;;8.45;;
19059;SDS011;9663;48.996;8.334;2023-07-02T12:55:51;13.20;;;9.98;;
19059;SDS011;9663;48.996;8.334;2023-07-02T12:58:17;12.15;;;8.73;;
19059;SDS011;9663;48.996;8.334;2023-07-02T13:00:44;10.93;;;8.13;;
19059;SDS011;9663;48.996;8.334;2023-07-02T13:03:10;12.23;;;8.20;;
19059;SDS011;9663;48.996;8.334;2023-07-02T13:05:37;10.73;;;7.57;;
19059;SDS011;9663;48.996;8.334;2023-07-02T13:08:04;11.45;;;7.95;;
19059;SDS011;9663;48.996;8.334;2023-07-02T13:10:31;10.70;;;7.55;;
19059;SDS011;9663;48.996;8.334;2023-07-02T13:12:58;10.65;;;7.65;;
19059;SDS011;9663;48.996;8.334;2023-07-02T13:15:24;12.45;;;8.27;;
19059;SDS011;9663;48.996;8.334;2023-07-02T13:17:50;10.77;;;7.28;;
19059;SDS011;9663;48.996;8.334;2023-07-02T13:20:16;10.70;;;7.63;;
19059;SDS011;9663;48.996;8.334;2023-07-02T13:22:41;10.50;;;7.63;;
19059;SDS011;9663;48.996;8.334;2023-07-02T13:25:07;10.35;;;7.68;;
19059;SDS011;9663;48.996;8.334;2023-07-02T13:27:33;9.80;;;7.00;;
19059;SDS011;9663;48.996;8.334;2023-07-02T13:29:59;13.23;;;8.27;;
19059;SDS011;9663;48.996;8.334;2023-07-02T13:32:25;10.80;;;7.60;;
19059;SDS011;9663;48.996;8.334;2023-07-02T13:34:51;10.13;;;7.10;;
19059;SDS011;9663;48.996;8.334;2023-07-02T13:37:16;10.55;;;7.45;;
19059;SDS011;9663;48.996;8.334;2023-07-02T13:39:46;13.88;;;9.50;;
19059;SDS011;9663;48.996;8.334;2023-07-02T13:42:13;11.65;;;8.25;;
19059;SDS011;9663;48.996;8.334;2023-07-02T13:44:40;12.25;;;8.13;;
19059;SDS011;9663;48.996;8.334;2023-07-02T13:47:07;10.13;;;7.45;;
19059;SDS011;9663;48.996;8.334;2023-07-02T13:49:33;11.65;;;7.63;;
19059;SDS011;9663;48.996;8.334;2023-07-02T13:51:59;11.43;;;7.93;;
19059;SDS011;9663;48.996;8.334;2023-07-02T13:54:25;11.07;;;7.57;;
19059;SDS011;9663;48.996;8.334;2023-07-02T13:56:51;11.52;;;7.38;;
19059;SDS011;9663;48.996;8.334;2023-07-02T13:59:18;10.15;;;6.70;;
19059;SDS011;9663;48.996;8.334;2023-07-02T14:01:46;12.70;;;7.97;;
19059;SDS011;9663;48.996;8.334;2023-07-02T14:04:13;11.77;;;7.82;;
19059;SDS011;9663;48.996;8.334;2023-07-02T14:06:41;10.10;;;7.65;;
19059;SDS011;9663;48.996;8.334;2023-07-02T14:09:07;12.02;;;7.80;;
19059;SDS011;9663;48.996;8.334;2023-07-02T14:11:34;9.90;;;7.03;;
19059;SDS011;9663;48.996;8.334;2023-07-02T14:14:03;9.02;;;6.20;;
19059;SDS011;9663;48.996;8.334;2023-07-02T14:16:30;10.30;;;6.80;;
19059;SDS011;9663;48.996;8.334;2023-07-02T14:18:56;10.02;;;6.80;;
19059;SDS011;9663;48.996;8.334;2023-07-02T14:21:25;11.63;;;7.28;;
19059;SDS011;9663;48.996;8.334;2023-07-02T14:23:51;10.48;;;6.90;;
19059;SDS011;9663;48.996;8.334;2023-07-02T14:26:18;10.07;;;6.93;;
19059;SDS011;9663;48.996;8.334;2023-07-02T14:28:43;11.98;;;7.68;;
19059;SDS011;9663;48.996;8.334;2023-07-02T14:31:09;10.80;;;6.85;;
19059;SDS011;9663;48.996;8.334;2023-07-02T14:33:36;11.77;;;7.53;;
19059;SDS011;9663;48.996;8.334;2023-07-02T14:36:03;9.00;;;6.63;;
19059;SDS011;9663;48.996;8.334;2023-07-02T14:38:30;9.32;;;6.10;;
19059;SDS011;9663;48.996;8.334;2023-07-02T14:40:58;11.52;;;6.97;;
19059;SDS011;9663;48.996;8.334;2023-07-02T14:43:25;12.02;;;6.20;;
19059;SDS011;9663;48.996;8.334;2023-07-02T14:45:54;9.85;;;6.75;;
19059;SDS011;9663;48.996;8.334;2023-07-02T14:48:23;9.18;;;5.93;;
19059;SDS011;9663;48.996;8.334;2023-07-02T14:50:56;11.02;;;7.18;;
19059;SDS011;9663;48.996;8.334;2023-07-02T14:53:25;9.60;;;6.40;;
19059;SDS011;9663;48.996;8.334;2023-07-02T14:55:55;10.45;;;6.80;;
19059;SDS011;9663;48.996;8.334;2023-07-02T14:58:24;10.40;;;6.20;;
19059;SDS011;9663;48.996;8.334;2023-07-02T15:00:52;10.38;;;6.75;;
19059;SDS011;9663;48.996;8.334;2023-07-02T15:03:21;12.00;;;7.22;;